createdAt,value
2022-11-30T04:03:19.130Z,15.77
2022-11-30T04:05:47.615Z,24.03
2022-11-30T04:08:14.812Z,21.63
2022-11-30T04:10:42.043Z,22.70
2022-11-30T04:13:09.251Z,23.10
2022-11-30T04:15:36.488Z,23.50
2022-11-30T04:18:03.849Z,23.87
2022-11-30T04:20:31.711Z,21.17
2022-11-30T04:23:00.227Z,23.13
2022-11-30T04:25:27.446Z,23.60
2022-11-30T04:27:54.647Z,23.33
2022-11-30T04:30:21.893Z,15.53
2022-11-30T04:32:49.150Z,22.50
2022-11-30T04:35:16.342Z,23.87
2022-11-30T04:37:43.769Z,24.13
2022-11-30T04:40:11.422Z,23.43
2022-11-30T04:42:38.612Z,29.57
2022-11-30T04:45:06.357Z,25.40
2022-11-30T04:47:33.680Z,23.90
2022-11-30T04:50:00.936Z,27.80
2022-11-30T04:52:28.189Z,27.97
2022-11-30T04:54:56.938Z,26.83
2022-11-30T04:57:24.595Z,26.20
2022-11-30T04:59:52.303Z,20.43
2022-11-30T05:02:19.511Z,24.37
2022-11-30T05:04:47.170Z,20.17
2022-11-30T05:07:14.647Z,25.37
2022-11-30T05:09:41.858Z,18.17
2022-11-30T05:12:09.082Z,17.93
2022-11-30T05:14:36.284Z,13.83
2022-11-30T05:17:03.875Z,24.37
2022-11-30T05:19:31.130Z,19.60
2022-11-30T05:21:58.382Z,23.13
2022-11-30T05:24:26.021Z,18.90
2022-11-30T05:26:53.149Z,24.60
2022-11-30T05:29:20.321Z,29.00
2022-11-30T05:31:47.741Z,26.07
2022-11-30T05:34:15.471Z,21.87
2022-11-30T05:36:42.730Z,19.03
2022-11-30T05:39:10.521Z,16.23
2022-11-30T05:41:38.035Z,17.63
2022-11-30T05:44:06.351Z,19.83
2022-11-30T05:46:37.066Z,20.00
2022-11-30T05:49:07.236Z,21.53
2022-11-30T05:51:34.794Z,15.47
2022-11-30T05:54:01.915Z,24.30
2022-11-30T05:56:29.183Z,30.47
2022-11-30T05:58:56.392Z,20.83
2022-11-30T06:01:26.154Z,18.60
2022-11-30T06:03:53.830Z,22.40
2022-11-30T06:06:21.948Z,22.63
2022-11-30T06:08:49.824Z,23.80
2022-11-30T06:11:17.554Z,15.47
2022-11-30T06:13:44.779Z,24.37
2022-11-30T06:16:12.073Z,31.17
2022-11-30T06:18:39.409Z,25.17
2022-11-30T06:21:09.411Z,33.60
2022-11-30T06:23:36.892Z,30.50
2022-11-30T06:26:09.571Z,31.07
2022-11-30T06:28:36.981Z,32.13
2022-11-30T06:31:06.503Z,29.63
2022-11-30T06:33:34.556Z,24.57
2022-11-30T06:36:02.332Z,33.20
2022-11-30T06:38:29.544Z,23.43
2022-11-30T06:41:06.735Z,27.80
2022-11-30T06:43:35.681Z,23.23
2022-11-30T06:46:03.966Z,29.67
2022-11-30T06:48:31.735Z,35.60
2022-11-30T06:51:00.427Z,29.17
2022-11-30T06:53:28.073Z,29.27
2022-11-30T06:55:55.408Z,31.80
2022-11-30T06:58:23.069Z,27.80
2022-11-30T07:00:50.261Z,31.30
2022-11-30T07:03:17.929Z,30.87
2022-11-30T07:05:46.633Z,27.03
2022-11-30T07:08:15.539Z,29.27
2022-11-30T07:10:45.092Z,28.13
2022-11-30T07:13:13.875Z,33.63
2022-11-30T07:15:42.009Z,32.63
2022-11-30T07:18:09.995Z,32.37
2022-11-30T07:20:38.359Z,35.07
2022-11-30T07:23:24.869Z,36.67
2022-11-30T07:26:09.387Z,35.13
2022-11-30T07:28:44.284Z,43.00
2022-11-30T07:31:17.876Z,38.63
2022-11-30T07:33:45.432Z,42.30
2022-11-30T07:36:13.181Z,43.03
2022-11-30T07:38:40.947Z,53.33
2022-11-30T07:41:08.190Z,49.53
2022-11-30T07:43:35.740Z,46.30
2022-11-30T07:46:03.333Z,45.93
2022-11-30T07:48:30.971Z,42.03
2022-11-30T07:51:25.606Z,44.47
2022-11-30T07:53:53.249Z,43.73
2022-11-30T07:56:21.230Z,46.27
2022-11-30T07:58:50.034Z,44.40
2022-11-30T08:01:21.609Z,48.20
2022-11-30T08:03:53.135Z,34.30
2022-11-30T08:06:26.062Z,35.70
2022-11-30T08:08:56.411Z,41.50
2022-11-30T08:11:27.975Z,40.03
2022-11-30T08:13:55.235Z,33.30
2022-11-30T08:16:25.281Z,34.60
2022-11-30T08:18:53.352Z,33.00
2022-11-30T08:21:21.644Z,37.87
2022-11-30T08:23:55.956Z,33.80
2022-11-30T08:26:26.624Z,36.93
2022-11-30T08:28:54.828Z,36.87
2022-11-30T08:31:36.341Z,44.37
2022-11-30T08:34:06.514Z,39.40
2022-11-30T08:36:34.377Z,35.00
2022-11-30T08:39:04.859Z,25.83
2022-11-30T08:41:33.838Z,39.67
2022-11-30T08:44:01.543Z,35.60
2022-11-30T08:49:24.713Z,39.07
2022-11-30T08:54:45.329Z,32.33
2022-11-30T08:57:13.702Z,33.90
2022-11-30T08:59:41.003Z,47.67
2022-11-30T09:02:14.478Z,34.37
2022-11-30T09:04:41.810Z,39.83
2022-11-30T09:07:09.667Z,37.13
2022-11-30T09:09:37.780Z,42.43
2022-11-30T09:12:06.309Z,38.47
2022-11-30T09:14:33.727Z,47.70
2022-11-30T09:17:01.014Z,53.73
2022-11-30T09:19:28.311Z,48.60
2022-11-30T09:21:55.550Z,40.60
2022-11-30T09:24:22.820Z,40.17
2022-11-30T09:26:50.045Z,36.57
2022-11-30T09:29:17.300Z,36.70
2022-11-30T09:31:44.625Z,41.53
2022-11-30T09:34:12.341Z,37.40
2022-11-30T09:36:39.638Z,37.50
2022-11-30T09:39:07.360Z,35.67
2022-11-30T09:41:40.710Z,36.40
2022-11-30T09:44:16.822Z,33.60
2022-11-30T09:47:11.255Z,29.77
2022-11-30T09:49:43.523Z,31.27
2022-11-30T09:52:26.443Z,34.60
2022-11-30T09:54:55.889Z,29.43
2022-11-30T09:57:37.770Z,30.77
2022-11-30T10:00:25.559Z,28.30
2022-11-30T10:02:56.362Z,30.70
2022-11-30T10:05:29.529Z,29.40
2022-11-30T10:08:16.769Z,30.83
2022-11-30T10:10:56.250Z,28.13
2022-11-30T10:13:27.853Z,23.37
2022-11-30T10:16:19.547Z,31.83
2022-11-30T10:19:08.225Z,29.37
2022-11-30T10:22:08.461Z,24.43
2022-11-30T10:24:40.310Z,24.10
2022-11-30T10:27:30.548Z,29.27
2022-11-30T10:30:00.291Z,20.20
2022-11-30T10:32:38.099Z,26.53
2022-11-30T10:35:37.134Z,24.27
2022-11-30T10:38:22.147Z,21.60
2022-11-30T10:40:52.894Z,25.33
2022-11-30T10:43:34.634Z,23.23
2022-11-30T10:46:01.948Z,25.50
2022-11-30T10:48:40.304Z,22.47
2022-11-30T10:51:08.681Z,21.07
2022-11-30T10:53:37.068Z,19.30
2022-11-30T10:56:12.196Z,18.63
2022-11-30T10:58:53.304Z,23.53
2022-11-30T11:01:41.009Z,17.37
2022-11-30T11:04:20.002Z,18.50
2022-11-30T11:06:56.769Z,13.70
2022-11-30T11:09:29.812Z,22.00
2022-11-30T11:12:22.541Z,18.87
2022-11-30T11:15:07.246Z,20.63
2022-11-30T11:17:34.451Z,12.93
2022-11-30T11:20:01.775Z,17.73
2022-11-30T11:22:31.482Z,16.10
2022-11-30T11:25:35.465Z,16.80
2022-11-30T11:28:29.106Z,21.23
2022-11-30T11:30:58.293Z,18.23
2022-11-30T11:33:29.621Z,17.20
2022-11-30T11:36:27.981Z,17.93
2022-11-30T11:38:56.339Z,15.60
2022-11-30T11:41:39.413Z,15.37
2022-11-30T11:44:09.368Z,16.33
2022-11-30T11:46:53.545Z,17.53
2022-11-30T11:49:28.992Z,17.33
2022-11-30T11:52:06.310Z,14.23
2022-11-30T11:55:15.582Z,16.67
2022-11-30T11:57:57.273Z,14.30
2022-11-30T12:00:27.410Z,14.97
2022-11-30T12:03:24.867Z,14.20
2022-11-30T12:05:58.678Z,9.87
2022-11-30T12:08:41.897Z,17.33
2022-11-30T12:11:13.865Z,20.03
2022-11-30T12:13:45.621Z,15.77
2022-11-30T12:16:14.542Z,23.50
2022-11-30T12:19:46.423Z,14.57
2022-11-30T12:22:41.127Z,14.10
2022-11-30T12:25:27.461Z,12.63
2022-11-30T12:28:21.446Z,13.90
2022-11-30T12:31:11.643Z,15.57
2022-11-30T12:34:03.921Z,11.17
2022-11-30T12:36:54.186Z,12.17
2022-11-30T12:39:49.291Z,17.27
2022-11-30T12:42:28.170Z,14.83
2022-11-30T12:45:28.571Z,12.93
2022-11-30T12:48:35.729Z,18.90
2022-11-30T12:51:11.810Z,17.57
2022-11-30T12:53:45.041Z,17.77
2022-11-30T12:56:22.309Z,15.63
2022-11-30T12:59:08.142Z,15.90
2022-11-30T13:02:17.134Z,19.47
2022-11-30T13:04:58.747Z,25.17
2022-11-30T13:07:33.602Z,21.17
2022-11-30T13:10:52.971Z,22.30
2022-11-30T13:13:25.696Z,16.60
2022-11-30T13:15:53.498Z,22.93
2022-11-30T13:18:23.246Z,21.70
2022-11-30T13:21:22.293Z,17.43
2022-11-30T13:24:35.834Z,17.63
2022-11-30T13:27:24.607Z,22.93
2022-11-30T13:30:21.711Z,24.97
2022-11-30T13:32:57.968Z,21.03
2022-11-30T13:35:29.005Z,23.27
2022-11-30T13:38:35.114Z,22.03
2022-11-30T13:40:59.152Z,19.50
2022-11-30T13:43:34.300Z,23.67
2022-11-30T13:46:16.061Z,23.57
2022-11-30T13:48:44.816Z,18.53
2022-11-30T13:51:13.687Z,25.57
2022-11-30T13:53:40.991Z,20.73
2022-11-30T13:56:20.278Z,27.40
2022-11-30T13:59:41.206Z,21.60
2022-11-30T14:02:33.370Z,19.87
2022-11-30T14:05:18.846Z,17.70
2022-11-30T14:08:06.216Z,20.93
2022-11-30T14:10:34.809Z,19.73
2022-11-30T14:13:09.413Z,19.03
2022-11-30T14:15:39.525Z,20.00
2022-11-30T14:18:09.623Z,21.33
2022-11-30T14:20:39.460Z,22.73
2022-11-30T14:23:11.976Z,22.93
2022-11-30T14:25:46.935Z,22.07
2022-11-30T14:28:21.473Z,21.47
2022-11-30T14:30:49.523Z,22.57
2022-11-30T14:33:22.632Z,16.50
2022-11-30T14:35:55.475Z,20.50
2022-11-30T14:38:30.955Z,28.23
2022-11-30T14:40:58.714Z,21.47
2022-11-30T14:43:26.621Z,19.77
2022-11-30T14:46:05.661Z,19.67
2022-11-30T14:48:34.519Z,20.80
2022-11-30T14:51:03.898Z,19.63
2022-11-30T14:53:34.173Z,20.53
2022-11-30T14:56:19.816Z,17.33
2022-11-30T14:58:52.962Z,19.43
2022-11-30T15:01:28.036Z,20.33
2022-11-30T15:04:02.445Z,21.33
2022-11-30T15:06:32.848Z,20.97
2022-11-30T15:09:01.957Z,18.57
2022-11-30T15:11:29.718Z,17.13
2022-11-30T15:14:07.198Z,15.60
2022-11-30T15:16:34.567Z,19.60
2022-11-30T15:19:22.271Z,17.50
2022-11-30T15:21:50.925Z,22.37
2022-11-30T15:24:18.558Z,18.67
2022-11-30T15:26:56.622Z,17.07
2022-11-30T15:29:32.433Z,20.80
2022-11-30T15:32:02.380Z,17.87
2022-11-30T15:35:00.829Z,14.13
2022-11-30T15:37:34.830Z,21.83
2022-11-30T15:40:04.498Z,19.23
2022-11-30T15:42:44.324Z,19.00
2022-11-30T15:45:21.245Z,20.73
2022-11-30T15:47:49.503Z,21.67
2022-11-30T15:50:40.630Z,21.80
2022-11-30T15:53:24.270Z,22.63
2022-11-30T15:55:54.443Z,22.47
2022-11-30T15:58:45.564Z,25.80
2022-11-30T16:01:13.193Z,24.07
2022-11-30T16:03:55.638Z,18.70
2022-11-30T16:06:37.563Z,28.43
2022-11-30T16:09:18.287Z,21.47
2022-11-30T16:11:50.196Z,28.17
2022-11-30T16:14:17.845Z,30.43
2022-11-30T16:16:45.778Z,25.50
2022-11-30T16:19:13.152Z,15.17
2022-11-30T16:21:41.028Z,18.30
2022-11-30T16:24:14.080Z,15.47
2022-11-30T16:26:51.108Z,26.20
2022-11-30T16:29:19.621Z,17.83
2022-11-30T16:31:47.230Z,17.87
2022-11-30T16:34:14.651Z,17.63
2022-11-30T16:36:41.910Z,19.93
2022-11-30T16:39:12.403Z,20.83
2022-11-30T16:41:39.643Z,21.40
2022-11-30T16:44:13.336Z,21.03
2022-11-30T16:46:40.629Z,21.07
2022-11-30T16:49:07.868Z,20.37
2022-11-30T16:51:36.147Z,22.70
2022-11-30T16:54:03.862Z,23.93
2022-11-30T16:56:31.095Z,25.13
2022-11-30T16:58:58.333Z,24.50
2022-11-30T17:01:35.521Z,24.50
2022-11-30T17:04:10.400Z,22.67
2022-11-30T17:06:37.900Z,23.43
2022-11-30T17:09:05.191Z,23.67
2022-11-30T17:11:35.158Z,25.93
2022-11-30T17:14:02.699Z,23.03
2022-11-30T17:16:30.134Z,27.30
2022-11-30T17:18:57.712Z,23.23
2022-11-30T17:21:29.729Z,25.77
2022-11-30T17:23:57.189Z,25.03
2022-11-30T17:26:24.734Z,26.50
2022-11-30T17:28:52.181Z,27.10
2022-11-30T17:31:19.575Z,26.00
2022-11-30T17:33:48.606Z,24.90
2022-11-30T17:36:18.771Z,27.13
2022-11-30T17:38:46.434Z,28.60
2022-11-30T17:41:19.119Z,27.27
2022-11-30T17:43:47.622Z,26.73
2022-11-30T17:46:17.965Z,27.80
2022-11-30T17:48:46.069Z,27.40
2022-11-30T17:51:13.799Z,29.63
2022-11-30T17:53:42.627Z,29.00
2022-11-30T17:56:15.741Z,32.53
2022-11-30T17:58:44.829Z,28.23
2022-11-30T18:01:23.990Z,29.60
2022-11-30T18:03:52.700Z,30.43
2022-11-30T18:06:20.320Z,31.90
2022-11-30T18:08:47.775Z,33.37
2022-11-30T18:11:18.991Z,30.77
2022-11-30T18:13:47.039Z,28.87
2022-11-30T18:16:18.076Z,32.97
2022-11-30T18:18:48.171Z,32.43
2022-11-30T18:21:18.462Z,32.97
2022-11-30T18:23:46.250Z,33.00
2022-11-30T18:26:16.040Z,33.00
2022-11-30T18:28:43.716Z,37.80
2022-11-30T18:31:11.124Z,36.93
2022-11-30T18:33:38.755Z,34.50
2022-11-30T18:36:07.687Z,32.77
2022-11-30T18:38:38.306Z,39.17
2022-11-30T18:41:06.344Z,36.30
2022-11-30T18:43:34.286Z,36.30
2022-11-30T18:46:09.411Z,37.67
2022-11-30T18:48:37.727Z,37.53
2022-11-30T18:51:20.306Z,35.33
2022-11-30T18:53:47.614Z,35.77
2022-11-30T18:56:19.546Z,36.30
2022-11-30T18:58:47.691Z,31.33
2022-11-30T19:01:18.217Z,33.70
2022-11-30T19:03:56.461Z,37.77
2022-11-30T19:06:25.358Z,34.47
2022-11-30T19:08:52.564Z,33.37
2022-11-30T19:11:20.007Z,35.37
2022-11-30T19:13:47.372Z,35.37
2022-11-30T19:16:16.517Z,37.30
2022-11-30T19:18:46.629Z,35.37
2022-11-30T19:21:16.174Z,34.37
2022-11-30T19:23:44.040Z,33.43
2022-11-30T19:26:11.484Z,32.77
2022-11-30T19:28:39.998Z,35.73
2022-11-30T19:31:13.476Z,38.63
2022-11-30T19:33:42.273Z,33.40
2022-11-30T19:36:13.915Z,37.30
2022-11-30T19:38:42.736Z,37.97
2022-11-30T19:41:12.419Z,39.03
2022-11-30T19:43:39.807Z,39.93
2022-11-30T19:46:12.116Z,39.97
2022-11-30T19:48:40.004Z,36.27
2022-11-30T19:51:14.799Z,39.27
2022-11-30T19:53:45.228Z,38.00
2022-11-30T19:56:15.130Z,40.17
2022-11-30T19:58:44.005Z,38.73
2022-11-30T20:01:15.839Z,38.80
2022-11-30T20:03:44.550Z,37.47
2022-11-30T20:06:12.285Z,38.07
2022-11-30T20:08:40.260Z,39.67
2022-11-30T20:11:12.603Z,40.47
2022-11-30T20:13:40.100Z,42.17
2022-11-30T20:16:15.703Z,42.63
2022-11-30T20:18:46.318Z,43.63
2022-11-30T20:21:16.703Z,42.00
2022-11-30T20:23:44.954Z,44.17
2022-11-30T20:26:36.864Z,44.67
2022-11-30T20:29:06.315Z,46.47
2022-11-30T20:31:35.809Z,49.47
2022-11-30T20:34:03.250Z,48.67
2022-11-30T20:36:30.843Z,46.37
2022-11-30T20:38:59.131Z,49.90
2022-11-30T20:41:26.677Z,48.20
2022-11-30T20:43:54.736Z,51.83
2022-11-30T20:46:30.726Z,50.57
2022-11-30T20:48:59.044Z,53.13
2022-11-30T20:51:31.089Z,58.97
2022-11-30T20:54:04.204Z,54.97
2022-11-30T20:56:32.369Z,53.20
2022-11-30T20:59:05.879Z,45.33
2022-11-30T21:01:33.303Z,52.90
2022-11-30T21:04:01.141Z,44.47
2022-11-30T21:06:29.928Z,48.27
2022-11-30T21:08:57.672Z,49.30
2022-11-30T21:11:26.007Z,51.53
2022-11-30T21:13:54.242Z,47.23
2022-11-30T21:16:27.590Z,46.50
2022-11-30T21:18:58.105Z,47.87
2022-11-30T21:21:27.771Z,46.73
2022-11-30T21:23:55.031Z,51.50
2022-11-30T21:26:29.257Z,53.13
2022-11-30T21:29:00.844Z,48.70
2022-11-30T21:31:28.305Z,48.20
2022-11-30T21:33:55.571Z,53.27
2022-11-30T21:36:23.531Z,52.87
2022-11-30T21:39:00.879Z,58.47
2022-11-30T21:41:31.636Z,51.17
2022-11-30T21:43:58.839Z,49.77
2022-11-30T21:46:26.178Z,46.77
2022-11-30T21:48:53.523Z,46.03
2022-11-30T21:51:23.910Z,45.30
2022-11-30T21:53:54.565Z,43.40
2022-11-30T21:56:27.641Z,42.07
2022-11-30T21:58:55.439Z,44.77
